sensor_id;sensor_type;location;lat;lon;timestamp;P1;durP1;ratioP1;P2;durP2;ratioP2
24084;SDS011;12268;52.110;5.548;2023-02-28T00:00:08;8.35;;;4.78;;
24084;SDS011;12268;52.110;5.548;2023-02-28T00:02:38;6.50;;;4.18;;
24084;SDS011;12268;52.110;5.548;2023-02-28T00:05:07;10.63;;;5.32;;
24084;SDS011;12268;52.110;5.548;2023-02-28T00:07:33;10.98;;;5.45;;
24084;SDS011;12268;52.110;5.548;2023-02-28T00:09:59;7.85;;;5.10;;
24084;SDS011;12268;52.110;5.548;2023-02-28T00:12:25;9.05;;;4.85;;
24084;SDS011;12268;52.110;5.548;2023-02-28T00:14:51;9.50;;;4.95;;
24084;SDS011;12268;52.110;5.548;2023-02-28T00:17:17;10.80;;;4.90;;
24084;SDS011;12268;52.110;5.548;2023-02-28T00:19:45;9.65;;;4.80;;
24084;SDS011;12268;52.110;5.548;2023-02-28T00:22:12;10.00;;;4.68;;
24084;SDS011;12268;52.110;5.548;2023-02-28T00:24:38;10.63;;;5.40;;
24084;SDS011;12268;52.110;5.548;2023-02-28T00:27:04;10.80;;;5.10;;
24084;SDS011;12268;52.110;5.548;2023-02-28T00:29:29;9.20;;;4.82;;
24084;SDS011;12268;52.110;5.548;2023-02-28T00:31:55;12.52;;;5.30;;
24084;SDS011;12268;52.110;5.548;2023-02-28T00:34:20;10.82;;;5.07;;
24084;SDS011;12268;52.110;5.548;2023-02-28T00:36:46;8.27;;;4.43;;
24084;SDS011;12268;52.110;5.548;2023-02-28T00:39:13;8.55;;;4.90;;
24084;SDS011;12268;52.110;5.548;2023-02-28T00:41:39;11.70;;;4.63;;
24084;SDS011;12268;52.110;5.548;2023-02-28T00:44:05;8.57;;;4.65;;
24084;SDS011;12268;52.110;5.548;2023-02-28T00:46:30;8.85;;;4.28;;
24084;SDS011;12268;52.110;5.548;2023-02-28T00:48:56;10.68;;;4.72;;
24084;SDS011;12268;52.110;5.548;2023-02-28T00:51:21;8.10;;;4.38;;
24084;SDS011;12268;52.110;5.548;2023-02-28T00:53:47;8.38;;;4.40;;
24084;SDS011;12268;52.110;5.548;2023-02-28T00:56:12;8.90;;;4.50;;
24084;SDS011;12268;52.110;5.548;2023-02-28T00:58:38;9.63;;;4.53;;
24084;SDS011;12268;52.110;5.548;2023-02-28T01:01:04;7.22;;;4.20;;
24084;SDS011;12268;52.110;5.548;2023-02-28T01:03:30;7.95;;;4.40;;
24084;SDS011;12268;52.110;5.548;2023-02-28T01:05:56;7.72;;;4.35;;
24084;SDS011;12268;52.110;5.548;2023-02-28T01:08:22;9.77;;;4.72;;
24084;SDS011;12268;52.110;5.548;2023-02-28T01:10:48;7.78;;;4.47;;
24084;SDS011;12268;52.110;5.548;2023-02-28T01:13:14;7.85;;;4.40;;
24084;SDS011;12268;52.110;5.548;2023-02-28T01:15:41;8.48;;;4.57;;
24084;SDS011;12268;52.110;5.548;2023-02-28T01:18:11;9.77;;;4.72;;
24084;SDS011;12268;52.110;5.548;2023-02-28T01:20:37;11.32;;;4.75;;
24084;SDS011;12268;52.110;5.548;2023-02-28T01:23:03;8.02;;;4.40;;
24084;SDS011;12268;52.110;5.548;2023-02-28T01:25:28;7.53;;;4.30;;
24084;SDS011;12268;52.110;5.548;2023-02-28T01:27:54;7.55;;;4.20;;
24084;SDS011;12268;52.110;5.548;2023-02-28T01:30:19;6.80;;;4.03;;
24084;SDS011;12268;52.110;5.548;2023-02-28T01:32:45;7.53;;;4.45;;
24084;SDS011;12268;52.110;5.548;2023-02-28T01:35:10;9.45;;;4.35;;
24084;SDS011;12268;52.110;5.548;2023-02-28T01:37:36;9.57;;;4.22;;
24084;SDS011;12268;52.110;5.548;2023-02-28T01:40:02;9.10;;;4.50;;
24084;SDS011;12268;52.110;5.548;2023-02-28T01:42:28;8.63;;;4.18;;
24084;SDS011;12268;52.110;5.548;2023-02-28T01:47:38;7.75;;;4.40;;
24084;SDS011;12268;52.110;5.548;2023-02-28T01:50:07;8.02;;;4.75;;
24084;SDS011;12268;52.110;5.548;2023-02-28T01:52:37;6.85;;;4.57;;
24084;SDS011;12268;52.110;5.548;2023-02-28T01:55:03;9.70;;;4.90;;
24084;SDS011;12268;52.110;5.548;2023-02-28T01:57:35;10.45;;;4.85;;
24084;SDS011;12268;52.110;5.548;2023-02-28T02:00:06;8.63;;;4.53;;
24084;SDS011;12268;52.110;5.548;2023-02-28T02:02:34;10.02;;;4.50;;
24084;SDS011;12268;52.110;5.548;2023-02-28T02:05:09;8.98;;;4.30;;
24084;SDS011;12268;52.110;5.548;2023-02-28T02:07:39;7.45;;;4.50;;
24084;SDS011;12268;52.110;5.548;2023-02-28T02:15:30;9.30;;;5.40;;
24084;SDS011;12268;52.110;5.548;2023-02-28T02:17:57;6.65;;;4.10;;
24084;SDS011;12268;52.110;5.548;2023-02-28T02:20:43;8.65;;;4.78;;
24084;SDS011;12268;52.110;5.548;2023-02-28T02:45:21;9.15;;;4.30;;
24084;SDS011;12268;52.110;5.548;2023-02-28T02:47:54;8.05;;;4.53;;
24084;SDS011;12268;52.110;5.548;2023-02-28T02:50:29;8.93;;;4.30;;
24084;SDS011;12268;52.110;5.548;2023-02-28T02:53:01;7.50;;;4.18;;
24084;SDS011;12268;52.110;5.548;2023-02-28T02:55:29;14.82;;;4.50;;
24084;SDS011;12268;52.110;5.548;2023-02-28T02:57:58;9.18;;;4.80;;
24084;SDS011;12268;52.110;5.548;2023-02-28T03:00:34;8.55;;;4.65;;
24084;SDS011;12268;52.110;5.548;2023-02-28T03:03:03;7.53;;;4.32;;
24084;SDS011;12268;52.110;5.548;2023-02-28T03:05:49;7.07;;;4.47;;
24084;SDS011;12268;52.110;5.548;2023-02-28T03:08:15;8.25;;;4.65;;
24084;SDS011;12268;52.110;5.548;2023-02-28T03:10:42;7.97;;;4.35;;
24084;SDS011;12268;52.110;5.548;2023-02-28T03:13:17;9.77;;;4.75;;
24084;SDS011;12268;52.110;5.548;2023-02-28T03:24:08;8.80;;;4.60;;
24084;SDS011;12268;52.110;5.548;2023-02-28T03:26:57;7.93;;;4.13;;
24084;SDS011;12268;52.110;5.548;2023-02-28T03:29:35;7.03;;;4.70;;
24084;SDS011;12268;52.110;5.548;2023-02-28T03:34:48;6.15;;;4.60;;
24084;SDS011;12268;52.110;5.548;2023-02-28T03:37:21;5.88;;;4.10;;
24084;SDS011;12268;52.110;5.548;2023-02-28T03:39:59;10.07;;;4.88;;
24084;SDS011;12268;52.110;5.548;2023-02-28T03:42:31;10.45;;;4.85;;
24084;SDS011;12268;52.110;5.548;2023-02-28T03:45:02;10.02;;;4.65;;
24084;SDS011;12268;52.110;5.548;2023-02-28T03:47:36;9.98;;;4.97;;
24084;SDS011;12268;52.110;5.548;2023-02-28T03:50:23;10.30;;;4.95;;
24084;SDS011;12268;52.110;5.548;2023-02-28T03:52:54;8.90;;;4.75;;
24084;SDS011;12268;52.110;5.548;2023-02-28T03:55:26;8.05;;;4.88;;
24084;SDS011;12268;52.110;5.548;2023-02-28T03:58:20;7.68;;;4.93;;
24084;SDS011;12268;52.110;5.548;2023-02-28T04:00:51;9.57;;;5.00;;
24084;SDS011;12268;52.110;5.548;2023-02-28T04:03:32;9.40;;;5.13;;
24084;SDS011;12268;52.110;5.548;2023-02-28T04:05:58;8.70;;;5.15;;
24084;SDS011;12268;52.110;5.548;2023-02-28T04:08:24;10.38;;;4.97;;
24084;SDS011;12268;52.110;5.548;2023-02-28T04:10:51;6.63;;;4.35;;
24084;SDS011;12268;52.110;5.548;2023-02-28T04:13:23;8.60;;;5.03;;
24084;SDS011;12268;52.110;5.548;2023-02-28T04:15:48;7.63;;;4.38;;
24084;SDS011;12268;52.110;5.548;2023-02-28T04:18:14;7.75;;;4.78;;
24084;SDS011;12268;52.110;5.548;2023-02-28T04:20:39;8.20;;;4.70;;
24084;SDS011;12268;52.110;5.548;2023-02-28T04:23:05;9.60;;;4.78;;
24084;SDS011;12268;52.110;5.548;2023-02-28T04:25:30;7.88;;;4.35;;
24084;SDS011;12268;52.110;5.548;2023-02-28T04:27:56;9.82;;;4.50;;
24084;SDS011;12268;52.110;5.548;2023-02-28T04:30:21;8.45;;;5.05;;
24084;SDS011;12268;52.110;5.548;2023-02-28T04:32:47;7.72;;;4.90;;
24084;SDS011;12268;52.110;5.548;2023-02-28T04:35:12;8.30;;;4.22;;
24084;SDS011;12268;52.110;5.548;2023-02-28T04:37:38;10.20;;;4.45;;
24084;SDS011;12268;52.110;5.548;2023-02-28T04:40:03;8.27;;;4.60;;
24084;SDS011;12268;52.110;5.548;2023-02-28T04:42:29;8.63;;;4.10;;
24084;SDS011;12268;52.110;5.548;2023-02-28T04:45:01;6.17;;;3.90;;
24084;SDS011;12268;52.110;5.548;2023-02-28T04:47:27;9.75;;;4.20;;
24084;SDS011;12268;52.110;5.548;2023-02-28T04:49:53;6.80;;;3.63;;
24084;SDS011;12268;52.110;5.548;2023-02-28T04:52:18;4.40;;;3.28;;
24084;SDS011;12268;52.110;5.548;2023-02-28T04:54:44;4.07;;;3.00;;
24084;SDS011;12268;52.110;5.548;2023-02-28T04:57:10;6.65;;;3.65;;
24084;SDS011;12268;52.110;5.548;2023-02-28T04:59:35;6.28;;;3.60;;
24084;SDS011;12268;52.110;5.548;2023-02-28T05:02:01;8.73;;;3.40;;
24084;SDS011;12268;52.110;5.548;2023-02-28T05:04:31;4.50;;;3.13;;
24084;SDS011;12268;52.110;5.548;2023-02-28T05:06:59;6.13;;;3.67;;
24084;SDS011;12268;52.110;5.548;2023-02-28T05:09:25;6.45;;;3.25;;
24084;SDS011;12268;52.110;5.548;2023-02-28T05:11:50;5.70;;;3.28;;
24084;SDS011;12268;52.110;5.548;2023-02-28T05:14:16;4.03;;;3.33;;
24084;SDS011;12268;52.110;5.548;2023-02-28T05:16:42;5.03;;;3.33;;
24084;SDS011;12268;52.110;5.548;2023-02-28T05:19:07;7.30;;;3.58;;
24084;SDS011;12268;52.110;5.548;2023-02-28T05:21:34;7.85;;;4.43;;
24084;SDS011;12268;52.110;5.548;2023-02-28T05:24:03;5.22;;;3.50;;
24084;SDS011;12268;52.110;5.548;2023-02-28T05:26:30;12.30;;;5.60;;
24084;SDS011;12268;52.110;5.548;2023-02-28T05:28:58;6.38;;;3.80;;
24084;SDS011;12268;52.110;5.548;2023-02-28T05:31:24;6.60;;;4.25;;
24084;SDS011;12268;52.110;5.548;2023-02-28T05:33:50;4.65;;;3.70;;
24084;SDS011;12268;52.110;5.548;2023-02-28T05:36:16;19.90;;;6.97;;
24084;SDS011;12268;52.110;5.548;2023-02-28T05:38:41;29.65;;;10.35;;
24084;SDS011;12268;52.110;5.548;2023-02-28T05:41:08;34.67;;;11.57;;
24084;SDS011;12268;52.110;5.548;2023-02-28T05:43:35;37.38;;;12.82;;
24084;SDS011;12268;52.110;5.548;2023-02-28T05:46:02;28.13;;;11.02;;
24084;SDS011;12268;52.110;5.548;2023-02-28T05:48:30;8.13;;;4.68;;
24084;SDS011;12268;52.110;5.548;2023-02-28T05:50:56;7.82;;;4.82;;
24084;SDS011;12268;52.110;5.548;2023-02-28T05:53:22;4.97;;;3.95;;
24084;SDS011;12268;52.110;5.548;2023-02-28T05:55:48;8.63;;;4.10;;
24084;SDS011;12268;52.110;5.548;2023-02-28T05:58:13;5.53;;;3.97;;
24084;SDS011;12268;52.110;5.548;2023-02-28T06:00:39;6.35;;;4.03;;
24084;SDS011;12268;52.110;5.548;2023-02-28T06:03:04;5.80;;;4.75;;
24084;SDS011;12268;52.110;5.548;2023-02-28T06:05:30;6.47;;;4.10;;
24084;SDS011;12268;52.110;5.548;2023-02-28T06:07:55;6.53;;;4.20;;
24084;SDS011;12268;52.110;5.548;2023-02-28T06:10:21;9.65;;;4.78;;
24084;SDS011;12268;52.110;5.548;2023-02-28T06:12:46;7.82;;;4.93;;
24084;SDS011;12268;52.110;5.548;2023-02-28T06:15:13;8.88;;;5.07;;
24084;SDS011;12268;52.110;5.548;2023-02-28T06:17:39;11.57;;;5.22;;
24084;SDS011;12268;52.110;5.548;2023-02-28T06:20:06;8.25;;;4.90;;
24084;SDS011;12268;52.110;5.548;2023-02-28T06:22:33;12.77;;;5.45;;
24084;SDS011;12268;52.110;5.548;2023-02-28T06:24:59;6.57;;;4.55;;
24084;SDS011;12268;52.110;5.548;2023-02-28T06:27:25;7.60;;;5.20;;
24084;SDS011;12268;52.110;5.548;2023-02-28T06:29:53;10.20;;;4.80;;
24084;SDS011;12268;52.110;5.548;2023-02-28T06:32:20;7.03;;;4.82;;
24084;SDS011;12268;52.110;5.548;2023-02-28T06:34:46;7.68;;;4.40;;
24084;SDS011;12268;52.110;5.548;2023-02-28T06:37:11;7.93;;;4.68;;
24084;SDS011;12268;52.110;5.548;2023-02-28T06:39:37;10.25;;;4.75;;
24084;SDS011;12268;52.110;5.548;2023-02-28T06:42:03;7.10;;;4.78;;
24084;SDS011;12268;52.110;5.548;2023-02-28T06:44:28;9.52;;;4.95;;
24084;SDS011;12268;52.110;5.548;2023-02-28T06:46:59;8.30;;;4.55;;
24084;SDS011;12268;52.110;5.548;2023-02-28T06:49:30;8.88;;;4.90;;
24084;SDS011;12268;52.110;5.548;2023-02-28T06:51:56;9.95;;;4.47;;
24084;SDS011;12268;52.110;5.548;2023-02-28T06:54:21;9.80;;;4.28;;
24084;SDS011;12268;52.110;5.548;2023-02-28T06:56:47;10.02;;;5.07;;
24084;SDS011;12268;52.110;5.548;2023-02-28T06:59:12;8.55;;;4.72;;
24084;SDS011;12268;52.110;5.548;2023-02-28T07:01:38;6.72;;;4.60;;
24084;SDS011;12268;52.110;5.548;2023-02-28T07:04:05;7.95;;;5.15;;
24084;SDS011;12268;52.110;5.548;2023-02-28T07:06:31;9.13;;;5.35;;
24084;SDS011;12268;52.110;5.548;2023-02-28T07:08:56;6.50;;;4.72;;
24084;SDS011;12268;52.110;5.548;2023-02-28T07:11:23;10.05;;;5.15;;
24084;SDS011;12268;52.110;5.548;2023-02-28T07:13:51;8.88;;;5.03;;
24084;SDS011;12268;52.110;5.548;2023-02-28T07:16:20;7.30;;;5.10;;
24084;SDS011;12268;52.110;5.548;2023-02-28T07:18:46;9.82;;;5.43;;
24084;SDS011;12268;52.110;5.548;2023-02-28T07:21:11;11.50;;;5.35;;
24084;SDS011;12268;52.110;5.548;2023-02-28T07:23:38;9.93;;;5.03;;
24084;SDS011;12268;52.110;5.548;2023-02-28T07:26:04;10.18;;;4.82;;
24084;SDS011;12268;52.110;5.548;2023-02-28T07:28:31;9.48;;;5.85;;
24084;SDS011;12268;52.110;5.548;2023-02-28T07:31:02;8.20;;;5.25;;
24084;SDS011;12268;52.110;5.548;2023-02-28T07:33:31;16.45;;;5.03;;
24084;SDS011;12268;52.110;5.548;2023-02-28T07:36:04;9.93;;;5.47;;
24084;SDS011;12268;52.110;5.548;2023-02-28T07:38:36;7.85;;;5.13;;
24084;SDS011;12268;52.110;5.548;2023-02-28T07:41:02;11.00;;;5.13;;
24084;SDS011;12268;52.110;5.548;2023-02-28T07:43:29;6.63;;;5.18;;
24084;SDS011;12268;52.110;5.548;2023-02-28T07:45:55;8.18;;;5.32;;
24084;SDS011;12268;52.110;5.548;2023-02-28T07:48:25;7.70;;;4.78;;
24084;SDS011;12268;52.110;5.548;2023-02-28T07:50:57;10.10;;;5.15;;
24084;SDS011;12268;52.110;5.548;2023-02-28T07:53:24;8.00;;;5.00;;
24084;SDS011;12268;52.110;5.548;2023-02-28T07:55:50;8.18;;;5.07;;
24084;SDS011;12268;52.110;5.548;2023-02-28T07:58:15;7.63;;;4.00;;
24084;SDS011;12268;52.110;5.548;2023-02-28T08:00:41;10.10;;;4.75;;
24084;SDS011;12268;52.110;5.548;2023-02-28T08:03:08;13.95;;;4.90;;
24084;SDS011;12268;52.110;5.548;2023-02-28T08:05:40;6.95;;;4.40;;
24084;SDS011;12268;52.110;5.548;2023-02-28T08:08:05;9.20;;;4.50;;
24084;SDS011;12268;52.110;5.548;2023-02-28T08:10:33;8.13;;;4.25;;
24084;SDS011;12268;52.110;5.548;2023-02-28T08:12:59;8.20;;;4.47;;
24084;SDS011;12268;52.110;5.548;2023-02-28T08:15:25;8.32;;;3.95;;
24084;SDS011;12268;52.110;5.548;2023-02-28T08:17:51;5.38;;;3.55;;
24084;SDS011;12268;52.110;5.548;2023-02-28T08:20:17;7.03;;;3.20;;
24084;SDS011;12268;52.110;5.548;2023-02-28T08:22:42;6.22;;;3.53;;
24084;SDS011;12268;52.110;5.548;2023-02-28T08:25:08;5.47;;;3.35;;
24084;SDS011;12268;52.110;5.548;2023-02-28T08:27:34;4.38;;;3.03;;
24084;SDS011;12268;52.110;5.548;2023-02-28T08:30:01;5.70;;;2.97;;
24084;SDS011;12268;52.110;5.548;2023-02-28T08:32:26;7.40;;;3.10;;
24084;SDS011;12268;52.110;5.548;2023-02-28T08:34:52;4.28;;;3.35;;
24084;SDS011;12268;52.110;5.548;2023-02-28T08:37:17;6.00;;;3.65;;
24084;SDS011;12268;52.110;5.548;2023-02-28T08:39:43;13.35;;;6.60;;
24084;SDS011;12268;52.110;5.548;2023-02-28T08:42:08;26.98;;;12.52;;
24084;SDS011;12268;52.110;5.548;2023-02-28T08:44:34;51.65;;;19.60;;
24084;SDS011;12268;52.110;5.548;2023-02-28T08:46:59;26.63;;;10.93;;
24084;SDS011;12268;52.110;5.548;2023-02-28T08:49:25;70.70;;;26.75;;
24084;SDS011;12268;52.110;5.548;2023-02-28T08:51:51;22.85;;;8.73;;
24084;SDS011;12268;52.110;5.548;2023-02-28T08:54:16;3.70;;;2.53;;
24084;SDS011;12268;52.110;5.548;2023-02-28T08:56:44;15.68;;;7.25;;
24084;SDS011;12268;52.110;5.548;2023-02-28T08:59:12;5.07;;;2.47;;
24084;SDS011;12268;52.110;5.548;2023-02-28T09:01:37;4.03;;;2.22;;
24084;SDS011;12268;52.110;5.548;2023-02-28T09:04:03;21.52;;;10.98;;
24084;SDS011;12268;52.110;5.548;2023-02-28T09:06:29;33.42;;;16.40;;
24084;SDS011;12268;52.110;5.548;2023-02-28T09:08:58;7.90;;;4.50;;
24084;SDS011;12268;52.110;5.548;2023-02-28T09:11:24;22.25;;;10.65;;
24084;SDS011;12268;52.110;5.548;2023-02-28T09:13:50;14.68;;;7.68;;
24084;SDS011;12268;52.110;5.548;2023-02-28T09:16:16;4.25;;;2.72;;
24084;SDS011;12268;52.110;5.548;2023-02-28T09:18:42;10.02;;;5.82;;
24084;SDS011;12268;52.110;5.548;2023-02-28T09:21:09;9.98;;;4.93;;
24084;SDS011;12268;52.110;5.548;2023-02-28T09:23:41;10.48;;;5.68;;
24084;SDS011;12268;52.110;5.548;2023-02-28T09:26:11;4.93;;;2.85;;
24084;SDS011;12268;52.110;5.548;2023-02-28T09:28:42;4.93;;;2.10;;
24084;SDS011;12268;52.110;5.548;2023-02-28T09:31:12;2.45;;;1.85;;
24084;SDS011;12268;52.110;5.548;2023-02-28T09:33:39;3.40;;;2.43;;
24084;SDS011;12268;52.110;5.548;2023-02-28T09:36:05;6.13;;;2.58;;
24084;SDS011;12268;52.110;5.548;2023-02-28T09:38:31;4.13;;;2.42;;
24084;SDS011;12268;52.110;5.548;2023-02-28T09:40:58;4.07;;;2.53;;
24084;SDS011;12268;52.110;5.548;2023-02-28T09:43:26;2.90;;;2.60;;
24084;SDS011;12268;52.110;5.548;2023-02-28T09:45:59;3.67;;;1.88;;
24084;SDS011;12268;52.110;5.548;2023-02-28T09:48:34;3.45;;;2.30;;
24084;SDS011;12268;52.110;5.548;2023-02-28T09:51:03;2.70;;;1.92;;
24084;SDS011;12268;52.110;5.548;2023-02-28T09:53:49;2.28;;;1.88;;
24084;SDS011;12268;52.110;5.548;2023-02-28T09:56:17;3.55;;;1.80;;
24084;SDS011;12268;52.110;5.548;2023-02-28T09:59:00;3.17;;;2.05;;
24084;SDS011;12268;52.110;5.548;2023-02-28T10:07:02;4.30;;;2.08;;
24084;SDS011;12268;52.110;5.548;2023-02-28T10:09:42;2.70;;;1.80;;
24084;SDS011;12268;52.110;5.548;2023-02-28T10:12:10;4.07;;;2.00;;
24084;SDS011;12268;52.110;5.548;2023-02-28T10:14:37;3.47;;;1.80;;
24084;SDS011;12268;52.110;5.548;2023-02-28T10:19:42;3.80;;;2.15;;
24084;SDS011;12268;52.110;5.548;2023-02-28T10:22:26;3.72;;;1.90;;
24084;SDS011;12268;52.110;5.548;2023-02-28T10:24:58;2.20;;;1.75;;
24084;SDS011;12268;52.110;5.548;2023-02-28T10:27:29;3.35;;;2.03;;
24084;SDS011;12268;52.110;5.548;2023-02-28T10:29:56;2.60;;;1.95;;
24084;SDS011;12268;52.110;5.548;2023-02-28T10:32:31;3.95;;;2.20;;
24084;SDS011;12268;52.110;5.548;2023-02-28T10:34:59;3.17;;;2.00;;
24084;SDS011;12268;52.110;5.548;2023-02-28T10:37:34;3.58;;;2.00;;
24084;SDS011;12268;52.110;5.548;2023-02-28T10:40:03;3.45;;;1.88;;
24084;SDS011;12268;52.110;5.548;2023-02-28T10:42:31;3.00;;;1.90;;
24084;SDS011;12268;52.110;5.548;2023-02-28T10:47:58;2.80;;;1.90;;
24084;SDS011;12268;52.110;5.548;2023-02-28T10:58:34;8.10;;;2.50;;
24084;SDS011;12268;52.110;5.548;2023-02-28T11:01:13;2.08;;;1.67;;
24084;SDS011;12268;52.110;5.548;2023-02-28T11:03:40;4.25;;;2.35;;
24084;SDS011;12268;52.110;5.548;2023-02-28T11:06:14;4.68;;;2.05;;
24084;SDS011;12268;52.110;5.548;2023-02-28T11:08:51;3.63;;;1.85;;
24084;SDS011;12268;52.110;5.548;2023-02-28T11:11:18;2.58;;;1.90;;
24084;SDS011;12268;52.110;5.548;2023-02-28T11:13:46;2.85;;;1.77;;
24084;SDS011;12268;52.110;5.548;2023-02-28T11:16:15;3.00;;;1.95;;
24084;SDS011;12268;52.110;5.548;2023-02-28T11:18:48;3.25;;;2.00;;
24084;SDS011;12268;52.110;5.548;2023-02-28T11:21:20;2.78;;;1.80;;
24084;SDS011;12268;52.110;5.548;2023-02-28T11:23:50;3.78;;;1.92;;
24084;SDS011;12268;52.110;5.548;2023-02-28T11:26:38;2.20;;;1.70;;
24084;SDS011;12268;52.110;5.548;2023-02-28T11:29:11;3.55;;;1.83;;
24084;SDS011;12268;52.110;5.548;2023-02-28T11:34:26;3.25;;;1.80;;
24084;SDS011;12268;52.110;5.548;2023-02-28T11:36:56;2.78;;;1.90;;
24084;SDS011;12268;52.110;5.548;2023-02-28T11:39:23;3.60;;;1.90;;
24084;SDS011;12268;52.110;5.548;2023-02-28T11:42:00;5.68;;;2.58;;
24084;SDS011;12268;52.110;5.548;2023-02-28T11:44:58;3.53;;;2.08;;
24084;SDS011;12268;52.110;5.548;2023-02-28T12:07:03;5.53;;;1.98;;
24084;SDS011;12268;52.110;5.548;2023-02-28T12:26:48;3.55;;;2.10;;
24084;SDS011;12268;52.110;5.548;2023-02-28T12:34:44;3.35;;;1.90;;
24084;SDS011;12268;52.110;5.548;2023-02-28T12:37:26;2.60;;;2.05;;
24084;SDS011;12268;52.110;5.548;2023-02-28T12:40:00;2.90;;;2.05;;
24084;SDS011;12268;52.110;5.548;2023-02-28T12:42:31;3.55;;;2.35;;
24084;SDS011;12268;52.110;5.548;2023-02-28T12:45:05;3.15;;;1.95;;
24084;SDS011;12268;52.110;5.548;2023-02-28T12:47:38;4.35;;;2.20;;
24084;SDS011;12268;52.110;5.548;2023-02-28T12:50:06;4.72;;;2.50;;
24084;SDS011;12268;52.110;5.548;2023-02-28T12:55:37;3.88;;;1.92;;
24084;SDS011;12268;52.110;5.548;2023-02-28T13:00:43;3.65;;;2.50;;
24084;SDS011;12268;52.110;5.548;2023-02-28T13:03:35;3.65;;;2.47;;
24084;SDS011;12268;52.110;5.548;2023-02-28T13:09:02;3.88;;;2.40;;
24084;SDS011;12268;52.110;5.548;2023-02-28T13:11:45;5.30;;;2.40;;
24084;SDS011;12268;52.110;5.548;2023-02-28T13:14:37;2.95;;;2.53;;
24084;SDS011;12268;52.110;5.548;2023-02-28T13:17:09;3.60;;;2.60;;
24084;SDS011;12268;52.110;5.548;2023-02-28T13:22:19;4.18;;;2.58;;
24084;SDS011;12268;52.110;5.548;2023-02-28T13:24:51;4.38;;;3.08;;
24084;SDS011;12268;52.110;5.548;2023-02-28T13:29:57;5.10;;;2.90;;
24084;SDS011;12268;52.110;5.548;2023-02-28T13:39:54;4.75;;;3.47;;
24084;SDS011;12268;52.110;5.548;2023-02-28T13:45:19;4.25;;;2.90;;
24084;SDS011;12268;52.110;5.548;2023-02-28T13:47:53;4.43;;;3.10;;
24084;SDS011;12268;52.110;5.548;2023-02-28T13:55:52;3.58;;;2.80;;
24084;SDS011;12268;52.110;5.548;2023-02-28T14:01:36;4.45;;;2.90;;
24084;SDS011;12268;52.110;5.548;2023-02-28T14:07:30;4.80;;;2.92;;
24084;SDS011;12268;52.110;5.548;2023-02-28T14:10:02;4.18;;;2.63;;
24084;SDS011;12268;52.110;5.548;2023-02-28T14:18:03;3.63;;;2.90;;
24084;SDS011;12268;52.110;5.548;2023-02-28T14:20:39;3.55;;;2.70;;
24084;SDS011;12268;52.110;5.548;2023-02-28T14:23:25;3.30;;;2.30;;
24084;SDS011;12268;52.110;5.548;2023-02-28T14:28:49;4.03;;;2.77;;
24084;SDS011;12268;52.110;5.548;2023-02-28T14:31:39;4.27;;;2.70;;
24084;SDS011;12268;52.110;5.548;2023-02-28T14:34:17;4.20;;;2.83;;
24084;SDS011;12268;52.110;5.548;2023-02-28T14:36:49;4.75;;;2.45;;
24084;SDS011;12268;52.110;5.548;2023-02-28T14:39:22;4.10;;;2.58;;
24084;SDS011;12268;52.110;5.548;2023-02-28T14:41:50;4.82;;;2.58;;
24084;SDS011;12268;52.110;5.548;2023-02-28T14:44:18;3.28;;;2.50;;
24084;SDS011;12268;52.110;5.548;2023-02-28T14:46:49;3.50;;;2.80;;
24084;SDS011;12268;52.110;5.548;2023-02-28T14:54:40;3.00;;;2.40;;
24084;SDS011;12268;52.110;5.548;2023-02-28T14:57:12;4.15;;;2.53;;
24084;SDS011;12268;52.110;5.548;2023-02-28T14:59:59;3.92;;;2.50;;
24084;SDS011;12268;52.110;5.548;2023-02-28T15:02:35;3.33;;;2.65;;
24084;SDS011;12268;52.110;5.548;2023-02-28T15:05:15;2.92;;;2.47;;
24084;SDS011;12268;52.110;5.548;2023-02-28T15:07:48;4.80;;;2.70;;
24084;SDS011;12268;52.110;5.548;2023-02-28T15:10:27;3.67;;;2.53;;
24084;SDS011;12268;52.110;5.548;2023-02-28T15:12:55;4.05;;;2.80;;
24084;SDS011;12268;52.110;5.548;2023-02-28T15:15:24;6.20;;;2.90;;
24084;SDS011;12268;52.110;5.548;2023-02-28T15:17:55;3.47;;;2.60;;
24084;SDS011;12268;52.110;5.548;2023-02-28T15:20:22;3.67;;;2.55;;
24084;SDS011;12268;52.110;5.548;2023-02-28T15:22:49;4.07;;;2.95;;
24084;SDS011;12268;52.110;5.548;2023-02-28T15:25:18;4.07;;;2.75;;
24084;SDS011;12268;52.110;5.548;2023-02-28T15:27:50;4.13;;;2.63;;
24084;SDS011;12268;52.110;5.548;2023-02-28T15:32:46;4.35;;;2.60;;
24084;SDS011;12268;52.110;5.548;2023-02-28T15:35:47;3.38;;;2.40;;
24084;SDS011;12268;52.110;5.548;2023-02-28T15:38:26;3.28;;;2.10;;
24084;SDS011;12268;52.110;5.548;2023-02-28T15:40:56;4.65;;;2.50;;
24084;SDS011;12268;52.110;5.548;2023-02-28T15:43:30;2.63;;;2.40;;
24084;SDS011;12268;52.110;5.548;2023-02-28T15:51:24;3.58;;;2.20;;
24084;SDS011;12268;52.110;5.548;2023-02-28T15:54:00;5.40;;;2.40;;
24084;SDS011;12268;52.110;5.548;2023-02-28T15:56:42;4.25;;;2.95;;
24084;SDS011;12268;52.110;5.548;2023-02-28T16:04:56;4.13;;;2.42;;
24084;SDS011;12268;52.110;5.548;2023-02-28T16:07:21;2.85;;;2.35;;
24084;SDS011;12268;52.110;5.548;2023-02-28T16:09:47;4.40;;;2.40;;
24084;SDS011;12268;52.110;5.548;2023-02-28T16:12:13;3.03;;;2.25;;
24084;SDS011;12268;52.110;5.548;2023-02-28T16:14:39;6.57;;;2.67;;
24084;SDS011;12268;52.110;5.548;2023-02-28T16:17:06;4.13;;;2.58;;
24084;SDS011;12268;52.110;5.548;2023-02-28T16:19:39;5.47;;;2.85;;
24084;SDS011;12268;52.110;5.548;2023-02-28T16:22:05;4.57;;;2.53;;
24084;SDS011;12268;52.110;5.548;2023-02-28T16:24:30;4.10;;;2.50;;
24084;SDS011;12268;52.110;5.548;2023-02-28T16:26:56;5.68;;;2.20;;
24084;SDS011;12268;52.110;5.548;2023-02-28T16:29:26;4.65;;;2.30;;
24084;SDS011;12268;52.110;5.548;2023-02-28T16:31:59;3.13;;;2.25;;
24084;SDS011;12268;52.110;5.548;2023-02-28T16:34:26;3.35;;;2.47;;
24084;SDS011;12268;52.110;5.548;2023-02-28T16:36:51;4.32;;;2.65;;
24084;SDS011;12268;52.110;5.548;2023-02-28T16:39:17;3.67;;;2.85;;
24084;SDS011;12268;52.110;5.548;2023-02-28T16:41:45;4.03;;;2.78;;
24084;SDS011;12268;52.110;5.548;2023-02-28T16:44:14;4.75;;;2.80;;
24084;SDS011;12268;52.110;5.548;2023-02-28T16:46:53;4.05;;;2.85;;
24084;SDS011;12268;52.110;5.548;2023-02-28T16:49:19;3.10;;;2.78;;
24084;SDS011;12268;52.110;5.548;2023-02-28T16:51:45;4.65;;;2.90;;
24084;SDS011;12268;52.110;5.548;2023-02-28T16:54:11;5.20;;;2.83;;
24084;SDS011;12268;52.110;5.548;2023-02-28T16:56:36;7.20;;;3.15;;
24084;SDS011;12268;52.110;5.548;2023-02-28T16:59:07;5.20;;;3.20;;
24084;SDS011;12268;52.110;5.548;2023-02-28T17:01:33;4.05;;;2.90;;
24084;SDS011;12268;52.110;5.548;2023-02-28T17:03:59;4.53;;;3.15;;
24084;SDS011;12268;52.110;5.548;2023-02-28T17:06:28;6.13;;;3.20;;
24084;SDS011;12268;52.110;5.548;2023-02-28T17:08:55;4.95;;;3.13;;
24084;SDS011;12268;52.110;5.548;2023-02-28T17:11:23;3.65;;;3.08;;
24084;SDS011;12268;52.110;5.548;2023-02-28T17:13:49;9.93;;;3.40;;
24084;SDS011;12268;52.110;5.548;2023-02-28T17:18:54;5.93;;;3.10;;
24084;SDS011;12268;52.110;5.548;2023-02-28T17:21:22;5.60;;;3.47;;
24084;SDS011;12268;52.110;5.548;2023-02-28T17:23:48;6.00;;;3.40;;
24084;SDS011;12268;52.110;5.548;2023-02-28T17:26:14;5.90;;;3.20;;
24084;SDS011;12268;52.110;5.548;2023-02-28T17:28:42;7.30;;;3.47;;
24084;SDS011;12268;52.110;5.548;2023-02-28T17:31:08;4.78;;;3.50;;
24084;SDS011;12268;52.110;5.548;2023-02-28T17:33:34;5.15;;;3.80;;
24084;SDS011;12268;52.110;5.548;2023-02-28T17:35:59;5.90;;;3.80;;
24084;SDS011;12268;52.110;5.548;2023-02-28T17:38:25;5.63;;;3.80;;
24084;SDS011;12268;52.110;5.548;2023-02-28T17:40:50;5.55;;;4.15;;
24084;SDS011;12268;52.110;5.548;2023-02-28T17:43:21;8.55;;;4.80;;
24084;SDS011;12268;52.110;5.548;2023-02-28T17:45:50;6.15;;;4.32;;
24084;SDS011;12268;52.110;5.548;2023-02-28T17:48:16;8.48;;;4.32;;